Pasinler, Turkey
Current Conditions -  °F | °C
As of 4:20 PM on Thursday 30 Oct 2014 (Local Time) from LTCE Reporting Station
Broken Clouds Broken Clouds  
Wind Chill: 45°   Ceiling: 8000
Heat Index: 48°   Visibility: 6mi
Dew Point: 39°   Wind: 8mph
Humidity: 71%   Direction: 60°ENE
Pressure: 30.09"   Gusts: NA
Location:  39.99°N, 41.69°E
Report Text: LTCE 301320Z 06007KT 9999 SCT030 BKN080 09/04 Q1019 NOSIG
Loading
Personal Weather Stations






























Interactive Weather Map
Tropical Storm Tracking
New forecast layout! Learn more

10-Day Weather Forecast

Advertisements
Track Severe Weather on mobile